createdAt,value
2023-01-29T04:39:55.228Z,100942.78
2023-01-29T04:42:35.369Z,100935.88
2023-01-29T04:45:25.416Z,100934.16
2023-01-29T04:48:13.845Z,100935.00
2023-01-29T04:50:46.812Z,100929.81
2023-01-29T04:53:23.785Z,100928.97
2023-01-29T04:55:55.810Z,100920.28
2023-01-29T04:58:25.055Z,100926.31
2023-01-29T05:00:54.222Z,100922.88
2023-01-29T05:03:24.613Z,100934.13
2023-01-29T05:05:51.535Z,100928.03
2023-01-29T05:08:21.380Z,100936.72
2023-01-29T05:10:54.620Z,100938.44
2023-01-29T05:13:23.144Z,100939.31
2023-01-29T05:15:56.578Z,100934.09
2023-01-29T05:18:23.183Z,100938.41
2023-01-29T05:20:50.090Z,100930.59
2023-01-29T05:23:22.550Z,100937.56
2023-01-29T05:25:50.517Z,100936.66
2023-01-29T05:28:17.425Z,100940.13
2023-01-29T05:30:52.354Z,100936.66
2023-01-29T05:33:27.053Z,100928.88
2023-01-29T05:35:53.965Z,100933.19
2023-01-29T05:38:20.391Z,100935.78
2023-01-29T05:40:47.408Z,100940.97
2023-01-29T05:43:16.399Z,100945.31
2023-01-29T05:45:43.013Z,100941.81
2023-01-29T05:48:09.541Z,100928.81
2023-01-29T05:50:36.627Z,100918.41
2023-01-29T05:53:03.028Z,100930.53
2023-01-29T05:55:29.608Z,100927.94
2023-01-29T05:57:56.151Z,100919.31
2023-01-29T06:00:22.612Z,100912.34
2023-01-29T06:02:49.586Z,100916.66
2023-01-29T06:05:16.029Z,100925.34
2023-01-29T06:07:45.352Z,100921.91
2023-01-29T06:10:15.022Z,100930.53
2023-01-29T06:12:43.149Z,100930.53
2023-01-29T06:15:10.873Z,100928.81
2023-01-29T06:17:37.378Z,100931.41
2023-01-29T06:20:05.136Z,100940.94
2023-01-29T06:22:32.893Z,100940.94
2023-01-29T06:24:59.232Z,100939.22
2023-01-29T06:27:25.678Z,100946.13
2023-01-29T06:29:52.151Z,100934.91
2023-01-29T06:32:18.625Z,100923.63
2023-01-29T06:34:45.027Z,100935.75
2023-01-29T06:37:11.453Z,100935.75
2023-01-29T06:39:37.860Z,100943.53
2023-01-29T06:42:04.386Z,100931.44
2023-01-29T06:44:30.790Z,100928.81
2023-01-29T06:46:57.373Z,100913.22
2023-01-29T06:49:23.811Z,100916.72
2023-01-29T06:51:50.221Z,100928.88
2023-01-29T06:54:16.630Z,100931.47
2023-01-29T06:56:43.025Z,100929.75
2023-01-29T06:59:11.082Z,100931.47
2023-01-29T07:01:41.061Z,100926.31
2023-01-29T07:04:07.550Z,100916.78
2023-01-29T07:06:35.067Z,100922.00
2023-01-29T07:09:02.357Z,100924.59
2023-01-29T07:11:28.879Z,100929.81
2023-01-29T07:13:55.306Z,100928.09
2023-01-29T07:16:21.857Z,100929.81
2023-01-29T07:18:48.284Z,100924.63
2023-01-29T07:21:14.786Z,100931.56
2023-01-29T07:23:41.271Z,100928.09
2023-01-29T07:26:07.827Z,100923.75
2023-01-29T07:28:38.196Z,100917.69
2023-01-29T07:31:05.331Z,100915.09
2023-01-29T07:33:32.284Z,100905.56
2023-01-29T07:35:58.935Z,100905.56
2023-01-29T07:38:25.648Z,100914.22
2023-01-29T07:40:53.042Z,100909.88
2023-01-29T07:43:19.462Z,100909.00
2023-01-29T07:45:46.038Z,100904.66
2023-01-29T07:48:13.373Z,100915.94
2023-01-29T07:50:40.487Z,100900.34
2023-01-29T07:53:07.332Z,100905.50
2023-01-29T07:55:33.952Z,100898.56
2023-01-29T07:58:03.046Z,100893.38
2023-01-29T08:00:31.341Z,100895.97
2023-01-29T08:03:06.115Z,100889.91
2023-01-29T08:05:33.085Z,100882.97
2023-01-29T08:08:06.597Z,100885.56
2023-01-29T08:10:35.248Z,100882.97
2023-01-29T08:13:03.035Z,100872.56
2023-01-29T08:15:29.884Z,100862.16
2023-01-29T08:17:58.285Z,100860.41
2023-01-29T08:20:25.782Z,100851.75
2023-01-29T08:23:06.353Z,100847.44
2023-01-29T08:25:33.224Z,100868.22
2023-01-29T08:28:00.504Z,100856.94
2023-01-29T08:30:30.455Z,100855.22
2023-01-29T08:32:57.038Z,100852.59
2023-01-29T08:35:24.049Z,100849.09
2023-01-29T08:37:59.309Z,100846.50
2023-01-29T08:40:26.981Z,100833.47
2023-01-29T08:42:53.368Z,100834.34
2023-01-29T08:45:19.765Z,100843.84
2023-01-29T08:47:47.847Z,100847.28
2023-01-29T08:50:15.368Z,100842.94
2023-01-29T08:52:43.219Z,100855.06
2023-01-29T08:55:10.451Z,100849.84
2023-01-29T08:57:37.972Z,100857.59
2023-01-29T09:00:06.017Z,100851.50
2023-01-29T09:02:32.752Z,100839.31
2023-01-29T09:04:59.273Z,100836.72
2023-01-29T09:07:25.719Z,100845.34
2023-01-29T09:09:52.190Z,100842.69
2023-01-29T09:12:18.631Z,100857.38
2023-01-29T09:14:45.112Z,100853.84
2023-01-29T09:17:11.514Z,100859.03
2023-01-29T09:19:37.927Z,100865.94
2023-01-29T09:22:04.328Z,100867.66
2023-01-29T09:24:30.820Z,100858.06
2023-01-29T09:26:57.235Z,100871.06
2023-01-29T09:29:23.620Z,100875.38
2023-01-29T09:31:50.148Z,100879.69
2023-01-29T09:34:16.627Z,100862.31
2023-01-29T09:36:43.181Z,100866.63
2023-01-29T09:39:09.748Z,100862.25
2023-01-29T09:41:52.377Z,100859.66
2023-01-29T09:44:50.084Z,100860.50
2023-01-29T09:47:18.382Z,100854.41
2023-01-29T09:50:07.193Z,100849.22
2023-01-29T09:52:38.808Z,100850.91
2023-01-29T09:55:39.323Z,100845.69
2023-01-29T09:58:32.013Z,100845.63
2023-01-29T10:01:10.304Z,100836.06
2023-01-29T10:03:55.121Z,100825.56
2023-01-29T10:06:33.559Z,100828.16
2023-01-29T10:09:18.517Z,100826.34
2023-01-29T10:12:11.258Z,100815.94
2023-01-29T10:14:56.053Z,100809.84
2023-01-29T10:17:47.152Z,100815.91
2023-01-29T10:20:42.098Z,100813.31
2023-01-29T10:23:30.098Z,100808.06
2023-01-29T10:25:56.693Z,100801.94
2023-01-29T10:28:34.386Z,100804.59
2023-01-29T10:31:07.306Z,100804.56
2023-01-29T10:33:49.018Z,100796.69
2023-01-29T10:36:28.646Z,100794.06
2023-01-29T10:38:55.994Z,100792.31
2023-01-29T10:41:25.902Z,100789.72
2023-01-29T10:44:01.235Z,100778.44
2023-01-29T10:46:33.746Z,100782.72
2023-01-29T10:49:15.183Z,100772.31
2023-01-29T10:51:57.091Z,100767.06
2023-01-29T10:54:50.114Z,100760.97
2023-01-29T10:57:25.506Z,100762.66
2023-01-29T11:00:07.921Z,100764.44
2023-01-29T11:02:34.501Z,100759.19
2023-01-29T11:05:01.213Z,100759.19
2023-01-29T11:07:28.112Z,100747.91
2023-01-29T11:10:15.082Z,100741.84
2023-01-29T11:12:43.727Z,100734.88
2023-01-29T11:15:32.375Z,100740.13
2023-01-29T11:18:10.561Z,100735.78
2023-01-29T11:20:37.350Z,100722.72
2023-01-29T11:23:04.088Z,100720.97
2023-01-29T11:25:32.778Z,100727.03
2023-01-29T11:28:01.734Z,100720.94
2023-01-29T11:30:32.427Z,100720.13
2023-01-29T11:33:23.515Z,100714.94
2023-01-29T11:35:52.505Z,100701.00
2023-01-29T11:38:26.930Z,100696.69
2023-01-29T11:41:04.428Z,100697.53
2023-01-29T11:43:31.882Z,100692.34
2023-01-29T11:46:05.212Z,100686.31
2023-01-29T11:48:44.112Z,100688.94
2023-01-29T11:54:25.327Z,100670.66
2023-01-29T12:00:03.084Z,100660.25
2023-01-29T12:03:35.055Z,100661.97
2023-01-29T12:06:41.572Z,100650.72
2023-01-29T12:10:10.784Z,100655.03
2023-01-29T12:13:36.064Z,100643.72
2023-01-29T12:16:14.793Z,100657.59
2023-01-29T12:22:54.856Z,100651.56
2023-01-29T12:25:28.265Z,100628.97
2023-01-29T12:31:35.069Z,100628.13
2023-01-29T12:34:25.563Z,100622.06
2023-01-29T12:41:44.062Z,100609.88
2023-01-29T12:48:22.203Z,100606.41
2023-01-29T12:55:48.867Z,100595.13
2023-01-29T12:58:22.971Z,100583.81
2023-01-29T13:01:02.978Z,100589.88
2023-01-29T13:03:59.151Z,100574.28
2023-01-29T13:06:51.787Z,100567.34
2023-01-29T13:15:47.202Z,100543.06
2023-01-29T13:19:15.483Z,100543.03
2023-01-29T13:21:44.024Z,100549.03
2023-01-29T13:24:36.337Z,100545.63
2023-01-29T13:27:33.239Z,100548.19
2023-01-29T13:30:29.130Z,100534.34
2023-01-29T13:36:18.003Z,100542.97
2023-01-29T13:39:27.409Z,100523.03
2023-01-29T13:41:56.213Z,100537.75
2023-01-29T13:44:39.158Z,100523.06
2023-01-29T13:47:39.326Z,100513.47
2023-01-29T13:50:18.941Z,100517.81
2023-01-29T13:52:54.558Z,100516.06
2023-01-29T13:55:31.517Z,100507.41
2023-01-29T13:58:03.154Z,100510.00
2023-01-29T14:00:35.547Z,100510.06
2023-01-29T14:03:04.568Z,100510.03
2023-01-29T14:05:31.211Z,100510.03
2023-01-29T14:08:02.118Z,100490.97
2023-01-29T14:10:31.651Z,100494.44
2023-01-29T14:13:03.855Z,100490.16
2023-01-29T14:15:38.257Z,100498.88
2023-01-29T14:18:10.922Z,100496.31
2023-01-29T14:21:05.071Z,100492.81
2023-01-29T14:23:41.564Z,100504.06
2023-01-29T14:26:37.816Z,100499.78
2023-01-29T14:29:16.471Z,100486.69
2023-01-29T14:32:12.239Z,100492.81
2023-01-29T14:34:47.612Z,100491.06
2023-01-29T14:37:17.138Z,100480.66
2023-01-29T14:40:12.817Z,100482.41
2023-01-29T14:42:52.406Z,100486.78
2023-01-29T14:45:35.467Z,100479.00
2023-01-29T14:48:38.660Z,100482.53
2023-01-29T14:51:17.128Z,100479.13
2023-01-29T14:54:14.057Z,100479.16
2023-01-29T14:56:46.855Z,100479.16
2023-01-29T14:59:21.040Z,100483.59
2023-01-29T15:01:53.433Z,100471.44
2023-01-29T15:04:27.967Z,100467.16
2023-01-29T15:07:09.711Z,100475.97
2023-01-29T15:09:51.504Z,100480.28
2023-01-29T15:12:24.525Z,100482.13
2023-01-29T15:15:03.051Z,100477.84
2023-01-29T15:17:46.226Z,100470.97
2023-01-29T15:20:26.629Z,100458.75
2023-01-29T15:22:53.159Z,100462.22
2023-01-29T15:25:21.671Z,100454.44
2023-01-29T15:27:49.390Z,100457.06
2023-01-29T15:30:22.071Z,100448.44
2023-01-29T15:32:49.462Z,100435.34
2023-01-29T15:35:22.054Z,100442.34
2023-01-29T15:38:00.600Z,100429.34
2023-01-29T15:40:27.449Z,100418.91
2023-01-29T15:42:54.091Z,100423.25
2023-01-29T15:45:31.333Z,100418.97
2023-01-29T15:48:05.615Z,100412.94
2023-01-29T15:50:39.401Z,100403.34
2023-01-29T15:53:10.080Z,100399.00
2023-01-29T15:55:36.780Z,100391.22
2023-01-29T15:58:04.186Z,100396.41
2023-01-29T16:00:31.445Z,100395.53
2023-01-29T16:03:00.644Z,100398.97
2023-01-29T16:05:33.135Z,100397.22
2023-01-29T16:08:00.992Z,100387.66
2023-01-29T16:10:31.253Z,100376.34
2023-01-29T16:12:58.748Z,100394.59
2023-01-29T16:15:34.829Z,100392.03
2023-01-29T16:18:04.717Z,100387.66
2023-01-29T16:20:37.686Z,100401.56
2023-01-29T16:23:05.321Z,100382.47
2023-01-29T16:25:33.872Z,100379.84
2023-01-29T16:28:04.531Z,100383.38
2023-01-29T16:30:31.162Z,100392.03
2023-01-29T16:33:03.645Z,100382.56
2023-01-29T16:35:30.561Z,100379.13
2023-01-29T16:38:03.384Z,100380.03
2023-01-29T16:43:16.967Z,100364.44
2023-01-29T16:46:01.221Z,100373.97
2023-01-29T16:48:32.389Z,100356.69
2023-01-29T16:51:20.933Z,100361.91
2023-01-29T16:53:57.216Z,100369.78
2023-01-29T16:56:25.211Z,100373.22
2023-01-29T16:58:53.309Z,100377.59
2023-01-29T17:01:21.978Z,100366.31
2023-01-29T17:04:13.486Z,100366.44
2023-01-29T17:06:46.919Z,100362.94
2023-01-29T17:09:25.415Z,100354.28
2023-01-29T17:12:05.437Z,100367.31
2023-01-29T17:14:34.319Z,100352.56
2023-01-29T17:17:07.519Z,100351.69
2023-01-29T17:19:33.977Z,100345.66
2023-01-29T17:22:04.550Z,100350.88
2023-01-29T17:24:31.545Z,100339.59
2023-01-29T17:26:58.039Z,100330.88
2023-01-29T17:29:28.929Z,100319.69
2023-01-29T17:31:56.056Z,100320.53
2023-01-29T17:34:23.958Z,100322.25
2023-01-29T17:36:50.389Z,100317.06
2023-01-29T17:39:23.184Z,100302.34
2023-01-29T17:41:56.147Z,100301.50
2023-01-29T17:44:23.184Z,100301.41
2023-01-29T17:46:49.713Z,100304.03
2023-01-29T17:49:25.269Z,100291.91
2023-01-29T17:51:53.284Z,100283.22
2023-01-29T17:54:20.525Z,100289.25
2023-01-29T17:56:47.751Z,100284.03
2023-01-29T17:59:16.317Z,100278.78
2023-01-29T18:01:43.515Z,100272.66
2023-01-29T18:04:10.087Z,100263.97
2023-01-29T18:06:36.936Z,100265.72
2023-01-29T18:09:04.216Z,100266.53
2023-01-29T18:11:30.830Z,100267.44
2023-01-29T18:13:57.722Z,100260.44
2023-01-29T18:16:25.273Z,100264.72
2023-01-29T18:18:52.457Z,100258.66
2023-01-29T18:21:19.292Z,100255.19
2023-01-29T18:23:45.785Z,100251.69
2023-01-29T18:26:13.194Z,100241.28
2023-01-29T18:28:40.320Z,100236.94
2023-01-29T18:31:06.848Z,100237.81
2023-01-29T18:33:34.214Z,100236.03
2023-01-29T18:36:00.758Z,100233.44
2023-01-29T18:38:27.477Z,100223.91
2023-01-29T18:40:53.881Z,100229.88
2023-01-29T18:43:20.313Z,100222.94
2023-01-29T18:45:46.811Z,100205.56
2023-01-29T18:48:14.191Z,100215.06
2023-01-29T18:51:10.303Z,100196.09
2023-01-29T18:53:34.995Z,100190.75
2023-01-29T18:56:05.969Z,100192.50
2023-01-29T18:58:35.799Z,100209.00
2023-01-29T19:01:10.055Z,100199.41
2023-01-29T19:03:37.840Z,100185.53
2023-01-29T19:06:07.007Z,100183.00
2023-01-29T19:08:34.287Z,100186.38
2023-01-29T19:11:03.762Z,100158.66
2023-01-29T19:13:33.946Z,100160.31
2023-01-29T19:16:00.862Z,100149.88
2023-01-29T19:18:28.308Z,100159.41
2023-01-29T19:20:55.236Z,100162.06
2023-01-29T19:23:22.786Z,100156.81
2023-01-29T19:25:49.323Z,100157.69
2023-01-29T19:28:15.835Z,100139.44
2023-01-29T19:30:42.322Z,100133.41
2023-01-29T19:33:10.423Z,100118.63
2023-01-29T19:35:37.056Z,100111.66
2023-01-29T19:38:03.986Z,100114.25
2023-01-29T19:40:30.469Z,100134.22
2023-01-29T19:42:56.945Z,100124.63
2023-01-29T19:45:49.945Z,100106.41
2023-01-29T19:48:13.346Z,100098.56
2023-01-29T19:50:39.811Z,100096.00
2023-01-29T19:53:06.340Z,100078.69
2023-01-29T19:55:32.910Z,100081.25
2023-01-29T19:57:59.535Z,100071.66
2023-01-29T20:00:25.912Z,100083.84
2023-01-29T20:02:52.377Z,100080.38
2023-01-29T20:05:20.182Z,100069.06
2023-01-29T20:07:46.856Z,100077.69
2023-01-29T20:10:17.420Z,100062.03
2023-01-29T20:12:45.369Z,100064.59
2023-01-29T20:15:13.200Z,100060.19
2023-01-29T20:17:39.632Z,100066.28
2023-01-29T20:20:06.794Z,100057.53
2023-01-29T20:22:33.366Z,100060.91
2023-01-29T20:24:59.821Z,100051.41
2023-01-29T20:27:26.256Z,100049.59
2023-01-29T20:29:52.798Z,100063.47
2023-01-29T20:32:19.349Z,100059.06
2023-01-29T20:34:49.548Z,100054.69
2023-01-29T20:37:16.039Z,100051.16
2023-01-29T20:39:42.469Z,100069.34
2023-01-29T20:42:08.851Z,100065.84
2023-01-29T20:44:35.292Z,100047.56
2023-01-29T20:47:02.644Z,100040.53
2023-01-29T20:49:29.153Z,100025.75
2023-01-29T20:51:55.586Z,100029.16
2023-01-29T20:54:22.201Z,100014.38
2023-01-29T20:56:49.014Z,100005.66
2023-01-29T20:59:15.667Z,100008.22
2023-01-29T21:01:43.179Z,100020.34
2023-01-29T21:04:09.589Z,100014.25
2023-01-29T21:06:36.190Z,100016.78
2023-01-29T21:09:02.581Z,100017.56
2023-01-29T21:11:29.154Z,100007.13
2023-01-29T21:13:57.717Z,100027.03
2023-01-29T21:16:26.106Z,100012.22
2023-01-29T21:18:55.896Z,100019.13
2023-01-29T21:21:26.442Z,100008.69
2023-01-29T21:23:52.923Z,100019.06
2023-01-29T21:26:19.335Z,100015.56
2023-01-29T21:28:46.295Z,100003.38
2023-01-29T21:31:17.654Z,99985.13
2023-01-29T21:33:44.636Z,100012.84
2023-01-29T21:36:11.485Z,99992.81
2023-01-29T21:38:38.641Z,99990.16
2023-01-29T21:41:08.065Z,99994.44
2023-01-29T21:43:34.526Z,100000.50
2023-01-29T21:46:04.962Z,99990.91
2023-01-29T21:48:31.766Z,100016.03
2023-01-29T21:50:58.159Z,100002.06
2023-01-29T21:53:24.676Z,100018.53
2023-01-29T21:55:51.719Z,100013.25
2023-01-29T21:58:19.759Z,99995.88
2023-01-29T22:00:48.706Z,100003.59
2023-01-29T22:03:15.581Z,100006.16
2023-01-29T22:05:42.130Z,100018.22
2023-01-29T22:08:09.521Z,100002.56
2023-01-29T22:10:36.517Z,100003.38
2023-01-29T22:13:03.518Z,99998.97
2023-01-29T22:15:29.932Z,99991.13
2023-01-29T22:17:56.343Z,99979.75
2023-01-29T22:20:29.857Z,99964.84
2023-01-29T22:23:00.475Z,99963.06
2023-01-29T22:25:27.311Z,99964.78
2023-01-29T22:27:53.790Z,99950.78
2023-01-29T22:30:20.591Z,99951.63
2023-01-29T22:32:47.126Z,99950.75
2023-01-29T22:35:13.727Z,99930.72
2023-01-29T22:37:40.167Z,99890.78
2023-01-29T22:40:07.290Z,99868.16
2023-01-29T22:47:59.984Z,99822.06
2023-01-29T22:50:26.493Z,99832.50
2023-01-29T22:52:53.454Z,99820.38
2023-01-29T22:55:20.035Z,99832.59
2023-01-29T22:57:49.540Z,99827.34
2023-01-29T23:00:16.829Z,99823.78
2023-01-29T23:02:43.467Z,99822.84
2023-01-29T23:05:09.956Z,99833.25
2023-01-29T23:07:36.573Z,99848.81
2023-01-29T23:10:03.883Z,99813.09
2023-01-29T23:12:30.302Z,99800.81
2023-01-29T23:14:56.725Z,99794.69
2023-01-29T23:17:23.276Z,99788.47
2023-01-29T23:19:49.623Z,99802.31
2023-01-29T23:22:16.163Z,99807.47
2023-01-29T23:24:42.546Z,99788.25
2023-01-29T23:27:15.898Z,99756.03
2023-01-29T23:29:43.327Z,99741.16
2023-01-29T23:32:11.093Z,99748.00
2023-01-29T23:34:37.620Z,99747.13
2023-01-29T23:37:04.789Z,99753.16
2023-01-29T23:39:31.735Z,99733.94
2023-01-29T23:41:58.315Z,99760.88
2023-01-29T23:44:24.818Z,99740.78
2023-01-29T23:46:51.301Z,99742.50
2023-01-29T23:49:18.725Z,99752.94
2023-01-29T23:51:47.515Z,99768.50
2023-01-29T23:54:14.138Z,99777.19
2023-01-29T23:56:40.634Z,99773.63
2023-01-29T23:59:07.208Z,99781.41
